sensor_id;sensor_type;location;lat;lon;timestamp;P1;durP1;ratioP1;P2;durP2;ratioP2
21661;SDS011;10992;48.170;8.596;2023-01-29T00:02:22;26.30;;;16.88;;
21661;SDS011;10992;48.170;8.596;2023-01-29T00:04:49;25.90;;;17.35;;
21661;SDS011;10992;48.170;8.596;2023-01-29T00:07:16;26.10;;;17.35;;
21661;SDS011;10992;48.170;8.596;2023-01-29T00:09:43;25.20;;;16.73;;
21661;SDS011;10992;48.170;8.596;2023-01-29T00:12:10;27.80;;;17.83;;
21661;SDS011;10992;48.170;8.596;2023-01-29T00:14:37;26.83;;;17.63;;
21661;SDS011;10992;48.170;8.596;2023-01-29T00:17:04;25.17;;;17.58;;
21661;SDS011;10992;48.170;8.596;2023-01-29T00:19:31;24.17;;;16.52;;
21661;SDS011;10992;48.170;8.596;2023-01-29T00:21:57;25.13;;;16.90;;
21661;SDS011;10992;48.170;8.596;2023-01-29T00:24:24;25.23;;;17.30;;
21661;SDS011;10992;48.170;8.596;2023-01-29T00:26:52;25.80;;;17.02;;
21661;SDS011;10992;48.170;8.596;2023-01-29T00:29:19;27.40;;;18.38;;
21661;SDS011;10992;48.170;8.596;2023-01-29T00:31:47;25.20;;;17.63;;
21661;SDS011;10992;48.170;8.596;2023-01-29T00:34:14;24.88;;;17.08;;
21661;SDS011;10992;48.170;8.596;2023-01-29T00:36:41;29.48;;;16.67;;
21661;SDS011;10992;48.170;8.596;2023-01-29T00:39:11;25.27;;;16.35;;
21661;SDS011;10992;48.170;8.596;2023-01-29T00:41:38;24.88;;;16.85;;
21661;SDS011;10992;48.170;8.596;2023-01-29T00:44:24;26.25;;;17.13;;
21661;SDS011;10992;48.170;8.596;2023-01-29T00:47:09;23.27;;;15.63;;
21661;SDS011;10992;48.170;8.596;2023-01-29T00:49:55;24.25;;;16.63;;
21661;SDS011;10992;48.170;8.596;2023-01-29T00:52:22;24.63;;;16.60;;
21661;SDS011;10992;48.170;8.596;2023-01-29T00:54:53;24.55;;;16.65;;
21661;SDS011;10992;48.170;8.596;2023-01-29T00:57:22;24.95;;;16.67;;
21661;SDS011;10992;48.170;8.596;2023-01-29T00:59:51;25.10;;;16.13;;
21661;SDS011;10992;48.170;8.596;2023-01-29T01:02:19;24.40;;;15.85;;
21661;SDS011;10992;48.170;8.596;2023-01-29T01:05:19;23.50;;;15.10;;
21661;SDS011;10992;48.170;8.596;2023-01-29T01:07:47;24.08;;;15.90;;
21661;SDS011;10992;48.170;8.596;2023-01-29T01:10:22;22.90;;;15.40;;
21661;SDS011;10992;48.170;8.596;2023-01-29T01:12:59;20.40;;;14.77;;
21661;SDS011;10992;48.170;8.596;2023-01-29T01:15:30;23.38;;;15.77;;
21661;SDS011;10992;48.170;8.596;2023-01-29T01:18:02;20.27;;;14.77;;
21661;SDS011;10992;48.170;8.596;2023-01-29T01:20:31;24.17;;;15.77;;
21661;SDS011;10992;48.170;8.596;2023-01-29T01:22:59;23.50;;;15.95;;
21661;SDS011;10992;48.170;8.596;2023-01-29T01:25:27;23.23;;;16.13;;
21661;SDS011;10992;48.170;8.596;2023-01-29T01:27:55;21.38;;;14.98;;
21661;SDS011;10992;48.170;8.596;2023-01-29T01:30:23;20.55;;;14.43;;
21661;SDS011;10992;48.170;8.596;2023-01-29T01:32:51;21.58;;;14.68;;
21661;SDS011;10992;48.170;8.596;2023-01-29T01:35:18;18.83;;;14.20;;
21661;SDS011;10992;48.170;8.596;2023-01-29T01:37:45;19.05;;;14.20;;
21661;SDS011;10992;48.170;8.596;2023-01-29T01:40:14;23.05;;;14.15;;
21661;SDS011;10992;48.170;8.596;2023-01-29T01:42:46;20.75;;;14.20;;
21661;SDS011;10992;48.170;8.596;2023-01-29T01:45:18;23.60;;;14.43;;
21661;SDS011;10992;48.170;8.596;2023-01-29T01:47:55;19.83;;;13.85;;
21661;SDS011;10992;48.170;8.596;2023-01-29T01:53:07;21.60;;;12.93;;
21661;SDS011;10992;48.170;8.596;2023-01-29T01:55:38;18.83;;;12.55;;
21661;SDS011;10992;48.170;8.596;2023-01-29T01:58:11;20.90;;;13.25;;
21661;SDS011;10992;48.170;8.596;2023-01-29T02:00:43;21.70;;;13.45;;
21661;SDS011;10992;48.170;8.596;2023-01-29T02:03:10;16.33;;;12.25;;
21661;SDS011;10992;48.170;8.596;2023-01-29T02:05:57;16.65;;;11.90;;
21661;SDS011;10992;48.170;8.596;2023-01-29T02:08:46;16.90;;;11.63;;
21661;SDS011;10992;48.170;8.596;2023-01-29T02:11:40;19.40;;;11.77;;
21661;SDS011;10992;48.170;8.596;2023-01-29T02:14:07;15.68;;;11.25;;
21661;SDS011;10992;48.170;8.596;2023-01-29T02:16:35;17.65;;;12.15;;
21661;SDS011;10992;48.170;8.596;2023-01-29T02:19:04;16.50;;;11.82;;
21661;SDS011;10992;48.170;8.596;2023-01-29T02:36:47;15.93;;;10.73;;
21661;SDS011;10992;48.170;8.596;2023-01-29T02:39:36;15.35;;;10.98;;
21661;SDS011;10992;48.170;8.596;2023-01-29T02:44:58;14.30;;;10.32;;
21661;SDS011;10992;48.170;8.596;2023-01-29T02:55:48;13.00;;;9.60;;
21661;SDS011;10992;48.170;8.596;2023-01-29T03:00:54;14.30;;;10.98;;
21661;SDS011;10992;48.170;8.596;2023-01-29T03:03:33;15.10;;;9.73;;
21661;SDS011;10992;48.170;8.596;2023-01-29T03:06:16;15.55;;;10.50;;
21661;SDS011;10992;48.170;8.596;2023-01-29T03:11:26;13.73;;;9.73;;
21661;SDS011;10992;48.170;8.596;2023-01-29T03:14:02;13.50;;;10.07;;
21661;SDS011;10992;48.170;8.596;2023-01-29T03:16:47;14.90;;;9.77;;
21661;SDS011;10992;48.170;8.596;2023-01-29T03:19:33;17.40;;;11.10;;
21661;SDS011;10992;48.170;8.596;2023-01-29T03:22:12;16.05;;;11.63;;
21661;SDS011;10992;48.170;8.596;2023-01-29T03:24:46;15.38;;;10.90;;
21661;SDS011;10992;48.170;8.596;2023-01-29T03:27:42;13.75;;;9.95;;
21661;SDS011;10992;48.170;8.596;2023-01-29T03:30:54;15.50;;;10.93;;
21661;SDS011;10992;48.170;8.596;2023-01-29T03:33:51;14.95;;;10.23;;
21661;SDS011;10992;48.170;8.596;2023-01-29T03:36:34;12.68;;;8.68;;
21661;SDS011;10992;48.170;8.596;2023-01-29T03:39:12;6.13;;;5.25;;
21661;SDS011;10992;48.170;8.596;2023-01-29T03:41:46;6.03;;;5.38;;
21661;SDS011;10992;48.170;8.596;2023-01-29T03:44:27;7.53;;;5.40;;
21661;SDS011;10992;48.170;8.596;2023-01-29T03:47:23;7.85;;;5.85;;
21661;SDS011;10992;48.170;8.596;2023-01-29T03:52:55;7.93;;;6.00;;
21661;SDS011;10992;48.170;8.596;2023-01-29T03:55:37;9.10;;;6.68;;
21661;SDS011;10992;48.170;8.596;2023-01-29T04:01:18;12.20;;;8.77;;
21661;SDS011;10992;48.170;8.596;2023-01-29T04:03:55;11.88;;;9.05;;
21661;SDS011;10992;48.170;8.596;2023-01-29T04:06:31;12.82;;;8.85;;
21661;SDS011;10992;48.170;8.596;2023-01-29T04:09:08;13.25;;;9.10;;
21661;SDS011;10992;48.170;8.596;2023-01-29T04:11:44;7.32;;;5.07;;
21661;SDS011;10992;48.170;8.596;2023-01-29T04:14:15;7.15;;;5.18;;
21661;SDS011;10992;48.170;8.596;2023-01-29T04:16:46;7.85;;;5.70;;
21661;SDS011;10992;48.170;8.596;2023-01-29T04:19:30;7.57;;;5.03;;
21661;SDS011;10992;48.170;8.596;2023-01-29T04:22:11;7.07;;;5.50;;
21661;SDS011;10992;48.170;8.596;2023-01-29T04:24:44;7.00;;;5.53;;
21661;SDS011;10992;48.170;8.596;2023-01-29T04:27:26;5.60;;;4.57;;
21661;SDS011;10992;48.170;8.596;2023-01-29T04:30:21;6.07;;;5.03;;
21661;SDS011;10992;48.170;8.596;2023-01-29T04:36:21;7.07;;;5.53;;
21661;SDS011;10992;48.170;8.596;2023-01-29T04:41:44;6.05;;;5.18;;
21661;SDS011;10992;48.170;8.596;2023-01-29T04:55:27;6.00;;;4.72;;
21661;SDS011;10992;48.170;8.596;2023-01-29T05:00:41;6.22;;;4.88;;
21661;SDS011;10992;48.170;8.596;2023-01-29T05:03:10;6.38;;;5.05;;
21661;SDS011;10992;48.170;8.596;2023-01-29T05:05:40;8.18;;;5.78;;
21661;SDS011;10992;48.170;8.596;2023-01-29T05:08:10;7.38;;;5.47;;
21661;SDS011;10992;48.170;8.596;2023-01-29T05:10:40;8.07;;;5.47;;
21661;SDS011;10992;48.170;8.596;2023-01-29T05:13:09;7.13;;;5.50;;
21661;SDS011;10992;48.170;8.596;2023-01-29T05:15:49;6.82;;;6.05;;
21661;SDS011;10992;48.170;8.596;2023-01-29T05:18:21;6.65;;;5.50;;
21661;SDS011;10992;48.170;8.596;2023-01-29T05:20:48;8.57;;;6.13;;
21661;SDS011;10992;48.170;8.596;2023-01-29T05:23:16;8.63;;;6.30;;
21661;SDS011;10992;48.170;8.596;2023-01-29T05:25:45;7.45;;;5.47;;
21661;SDS011;10992;48.170;8.596;2023-01-29T05:28:13;7.93;;;6.18;;
21661;SDS011;10992;48.170;8.596;2023-01-29T05:30:51;9.40;;;6.68;;
21661;SDS011;10992;48.170;8.596;2023-01-29T05:33:24;7.15;;;5.63;;
21661;SDS011;10992;48.170;8.596;2023-01-29T05:35:53;6.93;;;6.22;;
21661;SDS011;10992;48.170;8.596;2023-01-29T05:38:21;8.43;;;5.88;;
21661;SDS011;10992;48.170;8.596;2023-01-29T05:40:49;6.57;;;4.93;;
21661;SDS011;10992;48.170;8.596;2023-01-29T05:43:16;8.48;;;5.85;;
21661;SDS011;10992;48.170;8.596;2023-01-29T05:45:55;7.65;;;5.95;;
21661;SDS011;10992;48.170;8.596;2023-01-29T05:48:25;7.50;;;5.90;;
21661;SDS011;10992;48.170;8.596;2023-01-29T05:51:03;8.13;;;6.00;;
21661;SDS011;10992;48.170;8.596;2023-01-29T05:53:30;7.70;;;5.80;;
21661;SDS011;10992;48.170;8.596;2023-01-29T05:56:02;7.95;;;5.97;;
21661;SDS011;10992;48.170;8.596;2023-01-29T05:58:30;8.70;;;6.63;;
21661;SDS011;10992;48.170;8.596;2023-01-29T06:01:08;7.93;;;6.35;;
21661;SDS011;10992;48.170;8.596;2023-01-29T06:03:45;7.38;;;5.88;;
21661;SDS011;10992;48.170;8.596;2023-01-29T06:06:13;8.45;;;6.30;;
21661;SDS011;10992;48.170;8.596;2023-01-29T06:08:40;6.18;;;5.55;;
21661;SDS011;10992;48.170;8.596;2023-01-29T06:11:08;6.90;;;5.78;;
21661;SDS011;10992;48.170;8.596;2023-01-29T06:13:36;6.82;;;5.82;;
21661;SDS011;10992;48.170;8.596;2023-01-29T06:16:07;8.85;;;5.50;;
21661;SDS011;10992;48.170;8.596;2023-01-29T06:18:36;7.20;;;5.80;;
21661;SDS011;10992;48.170;8.596;2023-01-29T06:21:04;6.90;;;5.80;;
21661;SDS011;10992;48.170;8.596;2023-01-29T06:23:33;7.00;;;5.53;;
21661;SDS011;10992;48.170;8.596;2023-01-29T06:26:00;6.20;;;5.10;;
21661;SDS011;10992;48.170;8.596;2023-01-29T06:28:31;6.80;;;5.35;;
21661;SDS011;10992;48.170;8.596;2023-01-29T06:30:59;6.68;;;4.97;;
21661;SDS011;10992;48.170;8.596;2023-01-29T06:33:47;6.20;;;5.60;;
21661;SDS011;10992;48.170;8.596;2023-01-29T06:36:14;7.03;;;5.93;;
21661;SDS011;10992;48.170;8.596;2023-01-29T06:38:41;6.55;;;5.18;;
21661;SDS011;10992;48.170;8.596;2023-01-29T06:41:09;5.85;;;4.72;;
21661;SDS011;10992;48.170;8.596;2023-01-29T06:43:38;6.68;;;5.47;;
21661;SDS011;10992;48.170;8.596;2023-01-29T06:46:06;7.13;;;5.15;;
21661;SDS011;10992;48.170;8.596;2023-01-29T06:48:33;5.90;;;4.78;;
21661;SDS011;10992;48.170;8.596;2023-01-29T06:51:01;5.20;;;4.47;;
21661;SDS011;10992;48.170;8.596;2023-01-29T06:53:29;6.38;;;5.13;;
21661;SDS011;10992;48.170;8.596;2023-01-29T06:55:56;6.07;;;4.63;;
21661;SDS011;10992;48.170;8.596;2023-01-29T06:58:23;7.35;;;4.97;;
21661;SDS011;10992;48.170;8.596;2023-01-29T07:00:50;4.85;;;4.13;;
21661;SDS011;10992;48.170;8.596;2023-01-29T07:03:18;5.15;;;3.95;;
21661;SDS011;10992;48.170;8.596;2023-01-29T07:05:51;6.22;;;4.43;;
21661;SDS011;10992;48.170;8.596;2023-01-29T07:08:19;5.60;;;4.57;;
21661;SDS011;10992;48.170;8.596;2023-01-29T07:10:48;8.13;;;4.45;;
21661;SDS011;10992;48.170;8.596;2023-01-29T07:13:15;6.57;;;4.85;;
21661;SDS011;10992;48.170;8.596;2023-01-29T07:15:42;5.80;;;4.43;;
21661;SDS011;10992;48.170;8.596;2023-01-29T07:18:09;5.57;;;4.50;;
21661;SDS011;10992;48.170;8.596;2023-01-29T07:20:40;6.35;;;4.32;;
21661;SDS011;10992;48.170;8.596;2023-01-29T07:23:11;5.38;;;4.10;;
21661;SDS011;10992;48.170;8.596;2023-01-29T07:25:39;4.78;;;4.00;;
21661;SDS011;10992;48.170;8.596;2023-01-29T07:28:06;5.03;;;4.32;;
21661;SDS011;10992;48.170;8.596;2023-01-29T07:30:34;4.30;;;3.90;;
21661;SDS011;10992;48.170;8.596;2023-01-29T07:33:04;5.47;;;4.78;;
21661;SDS011;10992;48.170;8.596;2023-01-29T07:35:37;4.28;;;3.88;;
21661;SDS011;10992;48.170;8.596;2023-01-29T07:38:06;5.63;;;4.32;;
21661;SDS011;10992;48.170;8.596;2023-01-29T07:40:34;4.88;;;3.92;;
21661;SDS011;10992;48.170;8.596;2023-01-29T07:43:02;5.75;;;4.47;;
21661;SDS011;10992;48.170;8.596;2023-01-29T07:45:33;5.55;;;4.20;;
21661;SDS011;10992;48.170;8.596;2023-01-29T07:48:02;5.25;;;4.25;;
21661;SDS011;10992;48.170;8.596;2023-01-29T07:50:33;5.78;;;4.57;;
21661;SDS011;10992;48.170;8.596;2023-01-29T07:53:01;4.93;;;4.25;;
21661;SDS011;10992;48.170;8.596;2023-01-29T07:55:28;8.48;;;7.68;;
21661;SDS011;10992;48.170;8.596;2023-01-29T07:57:59;5.80;;;4.40;;
21661;SDS011;10992;48.170;8.596;2023-01-29T08:00:29;4.80;;;4.07;;
21661;SDS011;10992;48.170;8.596;2023-01-29T08:03:03;4.25;;;3.65;;
21661;SDS011;10992;48.170;8.596;2023-01-29T08:05:32;5.88;;;4.55;;
21661;SDS011;10992;48.170;8.596;2023-01-29T08:07:59;7.20;;;4.45;;
21661;SDS011;10992;48.170;8.596;2023-01-29T08:10:36;5.72;;;4.68;;
21661;SDS011;10992;48.170;8.596;2023-01-29T08:13:04;5.60;;;4.88;;
21661;SDS011;10992;48.170;8.596;2023-01-29T08:15:32;5.10;;;4.45;;
21661;SDS011;10992;48.170;8.596;2023-01-29T08:18:01;5.28;;;4.53;;
21661;SDS011;10992;48.170;8.596;2023-01-29T08:20:29;5.70;;;4.57;;
21661;SDS011;10992;48.170;8.596;2023-01-29T08:23:03;6.60;;;5.25;;
21661;SDS011;10992;48.170;8.596;2023-01-29T08:25:31;8.20;;;5.65;;
21661;SDS011;10992;48.170;8.596;2023-01-29T08:27:59;5.65;;;4.57;;
21661;SDS011;10992;48.170;8.596;2023-01-29T08:30:28;5.10;;;4.30;;
21661;SDS011;10992;48.170;8.596;2023-01-29T08:32:57;5.47;;;4.22;;
21661;SDS011;10992;48.170;8.596;2023-01-29T08:35:24;5.30;;;4.47;;
21661;SDS011;10992;48.170;8.596;2023-01-29T08:37:55;5.13;;;4.50;;
21661;SDS011;10992;48.170;8.596;2023-01-29T08:40:28;5.15;;;3.97;;
21661;SDS011;10992;48.170;8.596;2023-01-29T08:43:01;5.72;;;5.03;;
21661;SDS011;10992;48.170;8.596;2023-01-29T08:45:32;9.75;;;6.72;;
21661;SDS011;10992;48.170;8.596;2023-01-29T08:48:00;8.43;;;6.30;;
21661;SDS011;10992;48.170;8.596;2023-01-29T08:50:27;9.10;;;6.82;;
21661;SDS011;10992;48.170;8.596;2023-01-29T08:52:58;5.88;;;4.55;;
21661;SDS011;10992;48.170;8.596;2023-01-29T08:55:27;7.15;;;5.88;;
21661;SDS011;10992;48.170;8.596;2023-01-29T08:57:54;7.47;;;4.38;;
21661;SDS011;10992;48.170;8.596;2023-01-29T09:00:22;5.53;;;4.38;;
21661;SDS011;10992;48.170;8.596;2023-01-29T09:02:50;5.10;;;4.60;;
21661;SDS011;10992;48.170;8.596;2023-01-29T09:05:17;6.55;;;4.80;;
21661;SDS011;10992;48.170;8.596;2023-01-29T09:07:45;28.02;;;15.60;;
21661;SDS011;10992;48.170;8.596;2023-01-29T09:10:12;10.90;;;7.72;;
21661;SDS011;10992;48.170;8.596;2023-01-29T09:12:39;9.32;;;6.35;;
21661;SDS011;10992;48.170;8.596;2023-01-29T09:15:06;8.07;;;5.43;;
21661;SDS011;10992;48.170;8.596;2023-01-29T09:17:35;5.70;;;4.70;;
21661;SDS011;10992;48.170;8.596;2023-01-29T09:20:02;5.85;;;4.40;;
21661;SDS011;10992;48.170;8.596;2023-01-29T09:22:31;5.57;;;4.38;;
21661;SDS011;10992;48.170;8.596;2023-01-29T09:25:42;6.63;;;4.05;;
21661;SDS011;10992;48.170;8.596;2023-01-29T09:28:10;5.00;;;4.25;;
21661;SDS011;10992;48.170;8.596;2023-01-29T09:30:37;5.13;;;4.45;;
21661;SDS011;10992;48.170;8.596;2023-01-29T09:33:04;5.97;;;4.68;;
21661;SDS011;10992;48.170;8.596;2023-01-29T09:35:32;5.65;;;4.78;;
21661;SDS011;10992;48.170;8.596;2023-01-29T09:37:59;6.95;;;5.60;;
21661;SDS011;10992;48.170;8.596;2023-01-29T09:43:15;17.58;;;10.30;;
21661;SDS011;10992;48.170;8.596;2023-01-29T09:45:51;16.15;;;9.93;;
21661;SDS011;10992;48.170;8.596;2023-01-29T09:48:27;6.78;;;6.07;;
21661;SDS011;10992;48.170;8.596;2023-01-29T09:50:57;6.15;;;5.10;;
21661;SDS011;10992;48.170;8.596;2023-01-29T09:53:29;8.10;;;7.03;;
21661;SDS011;10992;48.170;8.596;2023-01-29T09:56:17;5.60;;;5.07;;
21661;SDS011;10992;48.170;8.596;2023-01-29T09:58:47;4.68;;;4.18;;
21661;SDS011;10992;48.170;8.596;2023-01-29T10:01:16;7.55;;;6.10;;
21661;SDS011;10992;48.170;8.596;2023-01-29T10:12:12;5.80;;;4.50;;
21661;SDS011;10992;48.170;8.596;2023-01-29T10:25:43;20.48;;;13.77;;
21661;SDS011;10992;48.170;8.596;2023-01-29T10:31:14;5.18;;;4.68;;
21661;SDS011;10992;48.170;8.596;2023-01-29T10:33:56;4.80;;;4.30;;
21661;SDS011;10992;48.170;8.596;2023-01-29T10:36:33;5.22;;;4.53;;
21661;SDS011;10992;48.170;8.596;2023-01-29T10:39:17;5.53;;;4.93;;
21661;SDS011;10992;48.170;8.596;2023-01-29T10:42:32;6.80;;;4.93;;
21661;SDS011;10992;48.170;8.596;2023-01-29T10:44:48;5.03;;;4.03;;
21661;SDS011;10992;48.170;8.596;2023-01-29T10:50:15;7.53;;;4.75;;
21661;SDS011;10992;48.170;8.596;2023-01-29T10:52:55;5.30;;;4.50;;
21661;SDS011;10992;48.170;8.596;2023-01-29T10:58:49;6.95;;;6.05;;
21661;SDS011;10992;48.170;8.596;2023-01-29T11:01:22;7.82;;;5.25;;
21661;SDS011;10992;48.170;8.596;2023-01-29T11:03:57;7.60;;;5.18;;
21661;SDS011;10992;48.170;8.596;2023-01-29T11:06:31;7.25;;;6.07;;
21661;SDS011;10992;48.170;8.596;2023-01-29T11:12:04;6.70;;;5.10;;
21661;SDS011;10992;48.170;8.596;2023-01-29T11:14:43;5.55;;;4.72;;
21661;SDS011;10992;48.170;8.596;2023-01-29T11:17:14;6.32;;;5.03;;
21661;SDS011;10992;48.170;8.596;2023-01-29T11:19:44;6.47;;;5.63;;
21661;SDS011;10992;48.170;8.596;2023-01-29T11:22:16;6.97;;;4.72;;
21661;SDS011;10992;48.170;8.596;2023-01-29T11:24:46;6.43;;;5.53;;
21661;SDS011;10992;48.170;8.596;2023-01-29T11:27:33;6.40;;;5.57;;
21661;SDS011;10992;48.170;8.596;2023-01-29T11:30:04;5.40;;;4.78;;
21661;SDS011;10992;48.170;8.596;2023-01-29T11:32:32;6.85;;;5.50;;
21661;SDS011;10992;48.170;8.596;2023-01-29T11:37:37;6.72;;;5.43;;
21661;SDS011;10992;48.170;8.596;2023-01-29T11:42:47;6.03;;;4.65;;
21661;SDS011;10992;48.170;8.596;2023-01-29T11:47:55;5.35;;;4.85;;
21661;SDS011;10992;48.170;8.596;2023-01-29T11:50:24;5.75;;;4.82;;
21661;SDS011;10992;48.170;8.596;2023-01-29T11:52:53;4.97;;;4.35;;
21661;SDS011;10992;48.170;8.596;2023-01-29T11:55:21;6.57;;;4.38;;
21661;SDS011;10992;48.170;8.596;2023-01-29T11:57:51;6.35;;;4.45;;
21661;SDS011;10992;48.170;8.596;2023-01-29T12:00:39;7.07;;;5.30;;
21661;SDS011;10992;48.170;8.596;2023-01-29T12:05:38;5.97;;;4.95;;
21661;SDS011;10992;48.170;8.596;2023-01-29T12:08:17;6.15;;;5.07;;
21661;SDS011;10992;48.170;8.596;2023-01-29T12:10:46;6.07;;;5.10;;
21661;SDS011;10992;48.170;8.596;2023-01-29T12:15:41;7.47;;;5.60;;
21661;SDS011;10992;48.170;8.596;2023-01-29T12:18:14;7.07;;;5.70;;
21661;SDS011;10992;48.170;8.596;2023-01-29T12:20:57;7.43;;;5.40;;
21661;SDS011;10992;48.170;8.596;2023-01-29T12:26:31;7.15;;;5.68;;
21661;SDS011;10992;48.170;8.596;2023-01-29T12:34:29;6.45;;;5.07;;
21661;SDS011;10992;48.170;8.596;2023-01-29T12:37:12;8.65;;;6.90;;
21661;SDS011;10992;48.170;8.596;2023-01-29T12:40:01;8.23;;;6.30;;
21661;SDS011;10992;48.170;8.596;2023-01-29T12:42:28;7.03;;;5.38;;
21661;SDS011;10992;48.170;8.596;2023-01-29T12:44:57;8.25;;;6.57;;
21661;SDS011;10992;48.170;8.596;2023-01-29T12:49:56;7.15;;;5.75;;
21661;SDS011;10992;48.170;8.596;2023-01-29T12:52:42;8.07;;;5.97;;
21661;SDS011;10992;48.170;8.596;2023-01-29T12:55:17;8.02;;;6.28;;
21661;SDS011;10992;48.170;8.596;2023-01-29T13:00:20;8.60;;;5.60;;
21661;SDS011;10992;48.170;8.596;2023-01-29T13:09:00;6.28;;;5.53;;
21661;SDS011;10992;48.170;8.596;2023-01-29T13:11:35;9.07;;;6.10;;
21661;SDS011;10992;48.170;8.596;2023-01-29T13:14:17;7.82;;;5.85;;
21661;SDS011;10992;48.170;8.596;2023-01-29T13:16:49;6.55;;;5.10;;
21661;SDS011;10992;48.170;8.596;2023-01-29T13:19:23;13.52;;;8.65;;
21661;SDS011;10992;48.170;8.596;2023-01-29T13:21:53;9.65;;;7.75;;
21661;SDS011;10992;48.170;8.596;2023-01-29T13:24:24;9.90;;;7.38;;
21661;SDS011;10992;48.170;8.596;2023-01-29T13:26:56;7.57;;;6.68;;
21661;SDS011;10992;48.170;8.596;2023-01-29T13:29:24;8.77;;;7.30;;
21661;SDS011;10992;48.170;8.596;2023-01-29T13:31:57;11.77;;;7.50;;
21661;SDS011;10992;48.170;8.596;2023-01-29T13:37:10;11.20;;;7.88;;
21661;SDS011;10992;48.170;8.596;2023-01-29T13:39:49;10.07;;;8.00;;
21661;SDS011;10992;48.170;8.596;2023-01-29T13:44:50;10.00;;;8.02;;
21661;SDS011;10992;48.170;8.596;2023-01-29T13:47:26;14.00;;;9.48;;
21661;SDS011;10992;48.170;8.596;2023-01-29T13:50:04;10.45;;;8.05;;
21661;SDS011;10992;48.170;8.596;2023-01-29T13:52:45;11.63;;;8.32;;
21661;SDS011;10992;48.170;8.596;2023-01-29T14:10:29;12.18;;;8.88;;
21661;SDS011;10992;48.170;8.596;2023-01-29T14:15:31;11.05;;;9.15;;
21661;SDS011;10992;48.170;8.596;2023-01-29T14:20:49;12.43;;;9.38;;
21661;SDS011;10992;48.170;8.596;2023-01-29T14:23:47;13.32;;;9.52;;
21661;SDS011;10992;48.170;8.596;2023-01-29T14:26:31;14.50;;;10.15;;
21661;SDS011;10992;48.170;8.596;2023-01-29T14:31:56;16.13;;;10.48;;
21661;SDS011;10992;48.170;8.596;2023-01-29T14:34:27;16.75;;;10.80;;
21661;SDS011;10992;48.170;8.596;2023-01-29T14:37:02;14.02;;;10.50;;
21661;SDS011;10992;48.170;8.596;2023-01-29T14:39:48;41.05;;;22.55;;
21661;SDS011;10992;48.170;8.596;2023-01-29T14:47:54;17.38;;;12.40;;
21661;SDS011;10992;48.170;8.596;2023-01-29T14:55:43;12.68;;;10.27;;
21661;SDS011;10992;48.170;8.596;2023-01-29T14:58:26;20.52;;;12.40;;
21661;SDS011;10992;48.170;8.596;2023-01-29T15:01:03;17.52;;;11.55;;
21661;SDS011;10992;48.170;8.596;2023-01-29T15:06:23;17.45;;;11.75;;
21661;SDS011;10992;48.170;8.596;2023-01-29T15:09:14;13.30;;;10.80;;
21661;SDS011;10992;48.170;8.596;2023-01-29T15:11:50;13.30;;;10.43;;
21661;SDS011;10992;48.170;8.596;2023-01-29T15:14:38;15.68;;;11.18;;
21661;SDS011;10992;48.170;8.596;2023-01-29T15:17:24;13.32;;;10.90;;
21661;SDS011;10992;48.170;8.596;2023-01-29T15:19:55;13.25;;;9.60;;
21661;SDS011;10992;48.170;8.596;2023-01-29T15:22:23;12.60;;;9.25;;
21661;SDS011;10992;48.170;8.596;2023-01-29T15:25:05;12.85;;;9.88;;
21661;SDS011;10992;48.170;8.596;2023-01-29T15:27:41;11.90;;;9.30;;
21661;SDS011;10992;48.170;8.596;2023-01-29T15:30:13;14.48;;;10.63;;
21661;SDS011;10992;48.170;8.596;2023-01-29T15:32:43;14.70;;;9.98;;
21661;SDS011;10992;48.170;8.596;2023-01-29T15:35:21;15.02;;;9.63;;
21661;SDS011;10992;48.170;8.596;2023-01-29T15:38:00;16.27;;;10.43;;
21661;SDS011;10992;48.170;8.596;2023-01-29T15:40:57;15.98;;;11.48;;
21661;SDS011;10992;48.170;8.596;2023-01-29T15:43:27;15.68;;;11.05;;
21661;SDS011;10992;48.170;8.596;2023-01-29T15:46:06;13.13;;;10.15;;
21661;SDS011;10992;48.170;8.596;2023-01-29T15:48:42;15.10;;;11.20;;
21661;SDS011;10992;48.170;8.596;2023-01-29T15:51:14;14.32;;;10.57;;
21661;SDS011;10992;48.170;8.596;2023-01-29T15:53:49;13.32;;;9.95;;
21661;SDS011;10992;48.170;8.596;2023-01-29T15:56:23;17.15;;;10.50;;
21661;SDS011;10992;48.170;8.596;2023-01-29T15:58:56;15.63;;;10.73;;
21661;SDS011;10992;48.170;8.596;2023-01-29T16:01:26;13.57;;;10.70;;
21661;SDS011;10992;48.170;8.596;2023-01-29T16:03:54;16.20;;;10.18;;
21661;SDS011;10992;48.170;8.596;2023-01-29T16:06:25;16.33;;;10.48;;
21661;SDS011;10992;48.170;8.596;2023-01-29T16:08:53;14.52;;;10.18;;
21661;SDS011;10992;48.170;8.596;2023-01-29T16:11:20;16.60;;;10.88;;
21661;SDS011;10992;48.170;8.596;2023-01-29T16:13:48;16.33;;;9.95;;
21661;SDS011;10992;48.170;8.596;2023-01-29T16:16:20;19.40;;;12.90;;
21661;SDS011;10992;48.170;8.596;2023-01-29T16:18:50;23.27;;;13.65;;
21661;SDS011;10992;48.170;8.596;2023-01-29T16:21:27;17.63;;;12.82;;
21661;SDS011;10992;48.170;8.596;2023-01-29T16:24:00;15.65;;;10.95;;
21661;SDS011;10992;48.170;8.596;2023-01-29T16:26:35;17.90;;;12.30;;
21661;SDS011;10992;48.170;8.596;2023-01-29T16:29:12;19.58;;;14.68;;
21661;SDS011;10992;48.170;8.596;2023-01-29T16:31:44;16.25;;;12.23;;
21661;SDS011;10992;48.170;8.596;2023-01-29T16:34:24;20.35;;;14.30;;
21661;SDS011;10992;48.170;8.596;2023-01-29T16:36:54;17.52;;;13.00;;
21661;SDS011;10992;48.170;8.596;2023-01-29T16:44:38;18.60;;;10.88;;
21661;SDS011;10992;48.170;8.596;2023-01-29T16:47:11;17.60;;;10.98;;
21661;SDS011;10992;48.170;8.596;2023-01-29T16:52:16;20.55;;;13.57;;
21661;SDS011;10992;48.170;8.596;2023-01-29T16:54:49;24.35;;;15.98;;
21661;SDS011;10992;48.170;8.596;2023-01-29T16:57:27;23.17;;;15.27;;
21661;SDS011;10992;48.170;8.596;2023-01-29T16:59:59;20.67;;;13.48;;
21661;SDS011;10992;48.170;8.596;2023-01-29T17:02:33;26.60;;;14.43;;
21661;SDS011;10992;48.170;8.596;2023-01-29T17:05:16;21.80;;;13.98;;
21661;SDS011;10992;48.170;8.596;2023-01-29T17:07:48;28.70;;;17.40;;
21661;SDS011;10992;48.170;8.596;2023-01-29T17:10:19;24.73;;;17.05;;
21661;SDS011;10992;48.170;8.596;2023-01-29T17:12:53;25.80;;;16.85;;
21661;SDS011;10992;48.170;8.596;2023-01-29T17:15:41;26.13;;;17.20;;
21661;SDS011;10992;48.170;8.596;2023-01-29T17:18:22;23.40;;;16.13;;
21661;SDS011;10992;48.170;8.596;2023-01-29T17:20:50;23.30;;;15.55;;
21661;SDS011;10992;48.170;8.596;2023-01-29T17:23:20;26.30;;;16.73;;
21661;SDS011;10992;48.170;8.596;2023-01-29T17:25:47;26.65;;;17.73;;
21661;SDS011;10992;48.170;8.596;2023-01-29T17:28:15;25.92;;;18.65;;
21661;SDS011;10992;48.170;8.596;2023-01-29T17:30:43;25.17;;;19.08;;
21661;SDS011;10992;48.170;8.596;2023-01-29T17:33:25;35.78;;;22.27;;
21661;SDS011;10992;48.170;8.596;2023-01-29T17:35:52;33.92;;;22.48;;
21661;SDS011;10992;48.170;8.596;2023-01-29T17:38:19;26.85;;;17.90;;
21661;SDS011;10992;48.170;8.596;2023-01-29T17:43:23;25.23;;;17.08;;
21661;SDS011;10992;48.170;8.596;2023-01-29T17:45:50;26.70;;;18.92;;
21661;SDS011;10992;48.170;8.596;2023-01-29T17:48:18;30.02;;;19.10;;
21661;SDS011;10992;48.170;8.596;2023-01-29T17:50:54;27.67;;;16.13;;
21661;SDS011;10992;48.170;8.596;2023-01-29T17:53:27;61.38;;;32.83;;
21661;SDS011;10992;48.170;8.596;2023-01-29T17:56:13;36.33;;;23.58;;
21661;SDS011;10992;48.170;8.596;2023-01-29T17:58:42;27.55;;;19.75;;
21661;SDS011;10992;48.170;8.596;2023-01-29T18:01:09;30.98;;;19.80;;
21661;SDS011;10992;48.170;8.596;2023-01-29T18:03:36;30.02;;;19.83;;
21661;SDS011;10992;48.170;8.596;2023-01-29T18:06:05;32.67;;;20.63;;
21661;SDS011;10992;48.170;8.596;2023-01-29T18:08:34;35.00;;;19.17;;
21661;SDS011;10992;48.170;8.596;2023-01-29T18:11:03;30.73;;;17.27;;